createdAt,value
2022-10-04T00:07:36.518Z,67.89
2022-10-04T00:10:21.740Z,67.85
2022-10-04T00:13:05.673Z,67.92
2022-10-04T00:15:39.408Z,67.82
2022-10-04T00:18:28.633Z,67.98
2022-10-04T00:34:55.605Z,68.50
2022-10-04T00:38:02.625Z,68.48
2022-10-04T00:40:45.971Z,68.54
2022-10-04T00:43:32.642Z,68.52
2022-10-04T00:46:12.377Z,68.29
2022-10-04T00:48:59.625Z,68.49
2022-10-04T01:02:25.814Z,68.58
2022-10-04T01:05:06.568Z,68.55
2022-10-04T01:07:54.509Z,68.85
2022-10-04T01:10:33.120Z,68.76
2022-10-04T01:13:21.656Z,68.72
2022-10-04T01:26:47.635Z,68.92
2022-10-04T01:29:26.808Z,68.77
2022-10-04T01:32:07.700Z,68.86
2022-10-04T01:34:40.811Z,68.60
2022-10-04T01:37:07.466Z,68.73
2022-10-04T01:39:47.682Z,68.90
2022-10-04T01:53:29.621Z,68.87
2022-10-04T01:56:10.369Z,69.12
2022-10-04T01:58:56.642Z,68.95
2022-10-04T02:01:39.390Z,68.93
2022-10-04T02:04:26.682Z,68.82
2022-10-04T02:07:03.042Z,68.70
2022-10-04T02:22:38.647Z,69.08
2022-10-04T02:25:17.986Z,68.95
2022-10-04T02:28:00.659Z,69.05
2022-10-04T02:30:38.146Z,69.06
2022-10-04T02:33:18.693Z,69.22
2022-10-04T02:35:52.050Z,68.98
2022-10-04T02:48:53.614Z,69.17
2022-10-04T02:51:40.941Z,69.25
2022-10-04T02:54:26.032Z,69.36
2022-10-04T02:57:06.656Z,69.33
2022-10-04T02:59:40.005Z,69.17
2022-10-04T03:15:57.102Z,69.11
2022-10-04T03:18:32.209Z,69.07
2022-10-04T03:21:10.632Z,69.06
2022-10-04T03:23:47.813Z,69.16
2022-10-04T03:26:42.646Z,69.14
2022-10-04T03:29:19.027Z,69.18
2022-10-04T03:42:19.607Z,69.17
2022-10-04T03:45:06.637Z,69.03
2022-10-04T03:47:45.477Z,69.07
2022-10-04T03:50:32.628Z,69.08
2022-10-04T03:53:30.978Z,69.02
2022-10-04T04:07:18.602Z,68.83
2022-10-04T04:10:06.698Z,68.94
2022-10-04T04:12:45.995Z,68.95
2022-10-04T04:15:36.628Z,68.88
2022-10-04T04:18:19.172Z,69.00
2022-10-04T04:21:03.612Z,68.97
2022-10-04T04:34:28.619Z,68.78
2022-10-04T04:37:04.145Z,68.71
2022-10-04T04:39:38.633Z,68.93
2022-10-04T04:42:21.013Z,68.85
2022-10-04T04:45:05.619Z,68.64
2022-10-04T04:47:44.455Z,68.61
2022-10-04T04:50:29.605Z,68.70
2022-10-04T05:00:45.632Z,68.85
2022-10-04T05:03:25.625Z,68.87
2022-10-04T05:06:01.108Z,68.60
2022-10-04T05:08:41.276Z,68.74
2022-10-04T05:11:15.618Z,68.82
2022-10-04T05:13:57.681Z,68.57
2022-10-04T05:27:37.076Z,68.85
2022-10-04T05:30:34.827Z,68.63
2022-10-04T05:33:17.625Z,68.71
2022-10-04T05:36:38.984Z,68.65
2022-10-04T05:39:30.634Z,68.60
2022-10-04T05:56:25.584Z,68.71
2022-10-04T05:59:24.635Z,68.59
2022-10-04T06:02:19.370Z,68.61
2022-10-04T06:05:18.612Z,68.54
2022-10-04T06:08:03.284Z,68.58
2022-10-04T06:11:07.646Z,68.37
2022-10-04T06:21:26.583Z,68.57
2022-10-04T06:24:18.620Z,68.58
2022-10-04T06:27:00.366Z,68.62
2022-10-04T06:33:19.578Z,68.52
2022-10-04T06:49:31.637Z,68.47
2022-10-04T06:52:45.747Z,68.56
2022-10-04T06:55:54.630Z,68.39
2022-10-04T06:59:13.844Z,68.43
2022-10-04T07:15:50.664Z,68.18
2022-10-04T07:18:29.442Z,68.19
2022-10-04T07:21:15.685Z,68.13
2022-10-04T07:23:55.664Z,68.02
2022-10-04T07:26:47.599Z,68.26
2022-10-04T07:29:28.160Z,67.97
2022-10-04T07:42:35.581Z,67.73
2022-10-04T07:45:29.113Z,67.73
2022-10-04T07:48:13.351Z,67.77
2022-10-04T07:51:10.637Z,67.42
2022-10-04T07:53:53.582Z,67.51
2022-10-04T08:10:28.610Z,67.26
2022-10-04T08:13:18.177Z,67.21
2022-10-04T08:15:58.641Z,67.06
2022-10-04T08:18:48.259Z,67.13
2022-10-04T08:35:42.096Z,66.50
2022-10-04T08:38:38.305Z,66.49
2022-10-04T08:42:05.617Z,66.52
2022-10-04T08:45:24.018Z,66.38
2022-10-04T08:48:45.600Z,66.37
2022-10-04T09:02:49.741Z,66.27
2022-10-04T09:05:53.585Z,66.23
2022-10-04T09:09:30.612Z,66.50
2022-10-04T09:12:35.417Z,66.17
2022-10-04T09:15:34.652Z,65.99
2022-10-04T09:29:33.613Z,65.53
2022-10-04T09:32:56.821Z,65.53
2022-10-04T09:36:22.051Z,65.50
2022-10-04T09:39:36.807Z,65.30
2022-10-04T09:42:50.586Z,65.16
2022-10-04T09:46:09.075Z,65.15
2022-10-04T09:56:20.589Z,65.41
2022-10-04T10:00:02.499Z,65.13
2022-10-04T10:03:41.666Z,64.96
2022-10-04T10:06:36.002Z,65.02
2022-10-04T10:09:36.610Z,64.92
2022-10-04T10:23:45.004Z,64.38
2022-10-04T10:26:51.914Z,64.69
2022-10-04T10:30:09.586Z,64.61
2022-10-04T10:33:34.591Z,64.64
2022-10-04T10:50:44.667Z,64.24
2022-10-04T10:53:59.022Z,64.09
2022-10-04T10:56:51.613Z,63.99
2022-10-04T11:00:03.746Z,63.79
2022-10-04T11:03:31.098Z,63.76
2022-10-04T11:17:08.623Z,63.36
2022-10-04T11:20:34.741Z,63.38
2022-10-04T11:24:05.205Z,63.57
2022-10-04T11:27:12.711Z,63.48
2022-10-04T11:30:15.607Z,63.02
2022-10-04T11:44:05.614Z,62.41
2022-10-04T11:46:49.869Z,62.42
2022-10-04T11:50:04.608Z,62.13
2022-10-04T11:53:31.480Z,61.79
2022-10-04T12:09:41.616Z,61.00
2022-10-04T12:13:14.074Z,61.08
2022-10-04T12:16:27.694Z,60.69
2022-10-04T12:19:51.455Z,60.23
2022-10-04T12:23:04.616Z,60.07
2022-10-04T12:26:18.448Z,59.75
2022-10-04T12:36:16.598Z,59.33
2022-10-04T12:39:13.051Z,58.73
2022-10-04T12:42:13.707Z,58.88
2022-10-04T12:45:12.383Z,58.79
2022-10-04T12:48:19.616Z,58.38
2022-10-04T12:51:17.474Z,57.58
2022-10-04T13:04:30.560Z,55.23
2022-10-04T13:07:48.604Z,53.69
2022-10-04T13:10:42.338Z,53.15
2022-10-04T13:14:01.618Z,52.15
2022-10-04T13:30:54.553Z,49.96
2022-10-04T13:33:49.001Z,49.52
2022-10-04T13:36:35.493Z,49.46
2022-10-04T13:39:39.597Z,49.01
2022-10-04T13:42:39.354Z,49.57
2022-10-04T13:45:43.394Z,50.38
2022-10-04T13:56:05.574Z,53.04
2022-10-04T13:58:54.577Z,53.76
2022-10-04T14:02:25.378Z,53.89
2022-10-04T14:06:11.597Z,55.10
2022-10-04T14:09:44.148Z,55.48
2022-10-04T14:23:49.558Z,55.77
2022-10-04T14:27:15.617Z,54.31
2022-10-04T14:30:27.925Z,54.49
2022-10-04T14:33:40.622Z,54.08
2022-10-04T14:50:51.555Z,46.21
2022-10-04T14:53:41.590Z,45.63
2022-10-04T14:56:45.176Z,45.85
2022-10-04T15:00:01.630Z,45.67
2022-10-04T15:03:07.354Z,45.63
2022-10-04T15:06:25.585Z,45.62
2022-10-04T15:16:39.564Z,46.38
2022-10-04T15:19:36.613Z,47.01
2022-10-04T15:22:24.039Z,47.51
2022-10-04T15:25:04.583Z,47.48
2022-10-04T15:27:51.567Z,48.15
2022-10-04T15:30:49.666Z,48.47
2022-10-04T15:44:48.013Z,51.43
2022-10-04T15:47:29.207Z,52.04
2022-10-04T15:50:33.391Z,52.30
2022-10-04T15:53:31.695Z,53.04
2022-10-04T16:09:58.592Z,54.63
2022-10-04T16:13:09.309Z,54.99
2022-10-04T16:15:50.691Z,55.00
2022-10-04T16:18:43.671Z,55.58
2022-10-04T16:21:36.582Z,55.37
2022-10-04T16:24:43.654Z,55.50
2022-10-04T16:37:44.570Z,56.44
2022-10-04T16:40:41.607Z,56.46
2022-10-04T16:43:27.888Z,56.24
2022-10-04T16:46:23.093Z,56.44
2022-10-04T16:49:02.770Z,56.81
2022-10-04T17:06:04.608Z,56.80
2022-10-04T17:08:54.456Z,56.77
2022-10-04T17:11:54.649Z,56.92
2022-10-04T17:14:59.524Z,57.17
2022-10-04T17:30:30.603Z,57.32
2022-10-04T17:33:27.865Z,57.71
2022-10-04T17:36:40.607Z,57.56
2022-10-04T17:39:37.990Z,57.62
2022-10-04T17:45:34.569Z,57.72
2022-10-04T17:58:44.573Z,57.93
2022-10-04T18:01:37.644Z,57.56
2022-10-04T18:04:18.963Z,58.00
2022-10-04T18:07:04.660Z,57.61
2022-10-04T18:09:45.798Z,57.94
2022-10-04T18:23:25.567Z,58.18
2022-10-04T18:26:15.636Z,58.40
2022-10-04T18:28:52.149Z,58.27
2022-10-04T18:31:44.664Z,58.17
2022-10-04T18:34:28.881Z,58.27
2022-10-04T18:37:24.615Z,58.41
2022-10-04T18:40:17.696Z,58.26
2022-10-04T18:50:27.232Z,58.30
2022-10-04T18:53:22.745Z,58.52
2022-10-04T18:56:14.724Z,58.37
2022-10-04T18:59:07.632Z,58.27
2022-10-04T19:02:11.663Z,58.04
2022-10-04T19:05:05.985Z,58.24
2022-10-04T19:18:24.273Z,57.77
2022-10-04T19:24:19.146Z,57.95
2022-10-04T19:27:09.650Z,57.77
2022-10-04T19:30:03.281Z,57.49
2022-10-04T19:43:43.565Z,57.58
2022-10-04T19:46:43.285Z,57.82
2022-10-04T19:49:29.846Z,57.56
2022-10-04T19:52:27.680Z,57.32
2022-10-04T19:55:19.500Z,57.11
2022-10-04T19:58:15.381Z,57.16
2022-10-04T20:00:49.417Z,57.15
2022-10-04T20:10:38.616Z,57.13
2022-10-04T20:13:24.127Z,57.46
2022-10-04T20:16:04.590Z,57.29
2022-10-04T20:18:58.507Z,57.41
2022-10-04T20:21:41.578Z,57.24
2022-10-04T20:24:50.784Z,57.76
2022-10-04T20:38:32.478Z,57.37
2022-10-04T20:41:52.611Z,57.41
2022-10-04T20:45:01.340Z,57.57
2022-10-04T20:47:48.596Z,57.32
2022-10-04T20:50:35.697Z,57.45
2022-10-04T21:04:19.558Z,57.54
2022-10-04T21:07:03.575Z,57.52
2022-10-04T21:09:38.573Z,57.88
2022-10-04T21:12:35.626Z,58.20
2022-10-04T21:15:20.635Z,58.04
2022-10-04T21:18:10.583Z,58.06
2022-10-04T21:20:46.218Z,58.27
2022-10-04T21:30:49.585Z,57.88
2022-10-04T21:33:22.718Z,58.29
2022-10-04T21:36:01.584Z,58.14
2022-10-04T21:38:35.198Z,58.20
2022-10-04T21:41:08.579Z,58.14
2022-10-04T21:43:41.649Z,57.93
2022-10-04T21:46:20.173Z,58.22
2022-10-04T21:59:30.627Z,58.31
2022-10-04T22:02:05.822Z,58.18
2022-10-04T22:04:39.378Z,58.18
2022-10-04T22:07:12.700Z,58.08
2022-10-04T22:09:45.585Z,58.02
2022-10-04T22:26:25.539Z,57.84
2022-10-04T22:29:05.581Z,58.16
2022-10-04T22:31:43.829Z,58.11
2022-10-04T22:34:27.576Z,58.11
2022-10-04T22:37:02.584Z,58.23
2022-10-04T22:39:38.564Z,57.98
2022-10-04T22:52:49.605Z,58.00
2022-10-04T22:55:22.816Z,57.93
2022-10-04T22:57:49.478Z,57.83
2022-10-04T23:00:29.656Z,58.04
2022-10-04T23:03:26.434Z,57.95
2022-10-04T23:06:09.033Z,58.04
2022-10-04T23:19:22.589Z,58.05
2022-10-04T23:21:55.641Z,58.34
2022-10-04T23:24:29.579Z,58.54
2022-10-04T23:27:06.311Z,58.49
2022-10-04T23:29:46.587Z,58.41
2022-10-04T23:46:26.549Z,58.93
2022-10-04T23:49:06.563Z,58.82
2022-10-04T23:51:39.710Z,58.65
2022-10-04T23:54:19.578Z,58.81
2022-10-04T23:56:53.277Z,58.99
2022-10-04T23:59:34.601Z,58.79
